Kelowna, Canada
Current Conditions -  °F | °C
As of 3:00 AM on Saturday 25 Oct 2014 (Local Time) from CYLW Reporting Station
Light Rain Light Rain  
Wind Chill: 38°   Ceiling: 6500
Heat Index: 43°   Visibility: 9mi
Dew Point: 41°   Wind: 8mph
Humidity: 93%   Direction: 10°N
Pressure: 29.9"   Gusts: NA
Location:  49.89°N, 119.5°W
Report Text: CYLW 251000Z AUTO 01007KT 9SM -RA OVC065 06/05 A2990 RMK PRESFR SLP132
Loading
Personal Weather Stations






























Interactive Weather Map New forecast layout! Learn more

10-Day Weather Forecast

Advertisements
Track Severe Weather on mobile